Georgetown, NY

3:21 AM EST on January 27, 2015 (GMT -0500)
White Eagle Farm | Change Station
CLOSE
Current Station
Personal Weather Station
Location: Hamilton, NY
Elevation: 1132 ft
Nearby Weather Stations

Elev 1132 ft 42.84 °N, 75.57 °W | Updated 1 minute ago

Overcast
Overcast
13.7 °F
Feels Like 4 °F
N
6.0
Wind Variable Wind from NNE
Gusts 6.0 mph

Today
High -- | Low -- °F
--% Chance of Precip.
Yesterday
High -- | Low -- °F
Precip. -- in
7:22 AM 5:09 PM
First Quarter, 52% visible
Pressure 29.82 in
Visibility 10.0 miles
Clouds Overcast 3800 ft
Windchill 4 °F
Dew Point 10 °F
Humidity 84%
Rainfall 0.00 in
Snow Depth Not available.
UV 0 out of 12
Pollen .10 out of 12
Air Quality Not available.
Flu Activity Not available.
METAR KN03 270815Z AUTO 01004KT 10SM OVC038 M08/M10 A2982 RMK AO2

More Conditions Fewer Conditions

Pressure 29.82 in
Visibility 10.0 miles
Clouds Overcast 3800 ft
Windchill 4 °F
Dew Point 10 °F
Humidity 84%
Rainfall 0.00 in
Snow Depth Not available.
UV 0 out of 12
Pollen .10 out of 12
Air Quality Not available.
Flu Activity Not available.
METAR KN03 270815Z AUTO 01004KT 10SM OVC038 M08/M10 A2982 RMK AO2

More Conditions Fewer Conditions

10-Day Weather Forecast

Almanac

Astronomy

Jan. 27, 2015 Rise Set
Actual Time
Civil Twilight
Nautical Twilight
Astronomical Twilight
Moon
Length of Visible Light
Length of Day
Tomorrow will be .
, % of the Moon is Illuminated

Today's Extremes

State Highs State Lows

Community

WunderPhotos

Upload Photos

1,790,543 photos uploaded!

WunderBlogs® & News

Nearby

Air Quality

  Air Quality AQ Index Pollutant
Not available.

Snow Depth

Station Depth Elevation

Earthquake Activity

City Distance Mag. Time & Date
Minimum magnitude displayed is 2.5.

Coastal Water Temperatures

Place Temperature

Nearby Weather Stations